sensor_id;sensor_type;location;lat;lon;timestamp;P1;durP1;ratioP1;P2;durP2;ratioP2
41167;SDS011;26906;45.658;9.272;2024-03-02T08:06:30;7.25;;;6.22;;
41167;SDS011;26906;45.658;9.272;2024-03-02T08:09:00;8.10;;;6.15;;
41167;SDS011;26906;45.658;9.272;2024-03-02T08:11:28;12.68;;;7.20;;
41167;SDS011;26906;45.658;9.272;2024-03-02T08:13:55;9.77;;;5.95;;
41167;SDS011;26906;45.658;9.272;2024-03-02T08:16:21;8.45;;;6.05;;
41167;SDS011;26906;45.658;9.272;2024-03-02T08:18:48;10.43;;;6.32;;
41167;SDS011;26906;45.658;9.272;2024-03-02T08:21:15;11.52;;;6.80;;
41167;SDS011;26906;45.658;9.272;2024-03-02T08:23:44;8.18;;;5.88;;
41167;SDS011;26906;45.658;9.272;2024-03-02T08:26:10;11.18;;;6.13;;
41167;SDS011;26906;45.658;9.272;2024-03-02T08:28:38;10.55;;;5.85;;
41167;SDS011;26906;45.658;9.272;2024-03-02T08:31:07;9.73;;;5.63;;
41167;SDS011;26906;45.658;9.272;2024-03-02T08:33:33;8.30;;;5.63;;
41167;SDS011;26906;45.658;9.272;2024-03-02T08:35:59;9.73;;;5.65;;
41167;SDS011;26906;45.658;9.272;2024-03-02T08:38:25;9.55;;;5.13;;
41167;SDS011;26906;45.658;9.272;2024-03-02T08:40:51;9.00;;;5.60;;
41167;SDS011;26906;45.658;9.272;2024-03-02T08:43:18;11.05;;;5.05;;
41167;SDS011;26906;45.658;9.272;2024-03-02T08:45:47;8.05;;;4.82;;
41167;SDS011;26906;45.658;9.272;2024-03-02T08:48:13;10.25;;;4.18;;
41167;SDS011;26906;45.658;9.272;2024-03-02T08:50:39;8.65;;;5.00;;
41167;SDS011;26906;45.658;9.272;2024-03-02T08:53:04;9.85;;;4.72;;
41167;SDS011;26906;45.658;9.272;2024-03-02T08:55:30;9.35;;;4.93;;
41167;SDS011;26906;45.658;9.272;2024-03-02T08:57:56;8.82;;;5.13;;
41167;SDS011;26906;45.658;9.272;2024-03-02T09:00:24;9.27;;;5.47;;
41167;SDS011;26906;45.658;9.272;2024-03-02T09:02:51;9.45;;;5.35;;
41167;SDS011;26906;45.658;9.272;2024-03-02T09:05:20;9.98;;;6.00;;
41167;SDS011;26906;45.658;9.272;2024-03-02T09:07:46;12.02;;;5.85;;
41167;SDS011;26906;45.658;9.272;2024-03-02T09:10:12;8.80;;;4.90;;
41167;SDS011;26906;45.658;9.272;2024-03-02T09:12:38;8.55;;;5.25;;
41167;SDS011;26906;45.658;9.272;2024-03-02T09:15:04;7.45;;;4.85;;
41167;SDS011;26906;45.658;9.272;2024-03-02T09:17:31;7.80;;;5.00;;
41167;SDS011;26906;45.658;9.272;2024-03-02T09:19:57;14.07;;;5.68;;
41167;SDS011;26906;45.658;9.272;2024-03-02T09:22:23;10.93;;;5.57;;
41167;SDS011;26906;45.658;9.272;2024-03-02T09:24:49;9.48;;;5.95;;
41167;SDS011;26906;45.658;9.272;2024-03-02T09:27:16;9.07;;;4.97;;
41167;SDS011;26906;45.658;9.272;2024-03-02T09:29:44;7.43;;;5.07;;
41167;SDS011;26906;45.658;9.272;2024-03-02T09:32:12;14.10;;;5.57;;
41167;SDS011;26906;45.658;9.272;2024-03-02T09:34:38;10.05;;;4.82;;
41167;SDS011;26906;45.658;9.272;2024-03-02T09:37:04;8.77;;;5.05;;
41167;SDS011;26906;45.658;9.272;2024-03-02T09:39:30;11.80;;;4.85;;
41167;SDS011;26906;45.658;9.272;2024-03-02T09:41:56;9.43;;;4.53;;
41167;SDS011;26906;45.658;9.272;2024-03-02T09:44:23;7.22;;;4.47;;
41167;SDS011;26906;45.658;9.272;2024-03-02T09:46:52;11.77;;;5.00;;
41167;SDS011;26906;45.658;9.272;2024-03-02T09:49:19;8.45;;;5.28;;
41167;SDS011;26906;45.658;9.272;2024-03-02T09:51:46;11.20;;;5.38;;
41167;SDS011;26906;45.658;9.272;2024-03-02T09:54:16;11.38;;;7.75;;
41167;SDS011;26906;45.658;9.272;2024-03-02T09:56:42;10.93;;;4.95;;
41167;SDS011;26906;45.658;9.272;2024-03-02T09:59:09;11.90;;;5.13;;
41167;SDS011;26906;45.658;9.272;2024-03-02T10:01:35;9.18;;;5.88;;
41167;SDS011;26906;45.658;9.272;2024-03-02T10:04:01;9.90;;;5.53;;
41167;SDS011;26906;45.658;9.272;2024-03-02T10:06:30;8.70;;;5.00;;
41167;SDS011;26906;45.658;9.272;2024-03-02T10:08:57;9.95;;;4.93;;
41167;SDS011;26906;45.658;9.272;2024-03-02T10:16:38;7.97;;;5.40;;
41167;SDS011;26906;45.658;9.272;2024-03-02T10:19:19;11.70;;;5.63;;
41167;SDS011;26906;45.658;9.272;2024-03-02T10:21:46;12.25;;;5.50;;
41167;SDS011;26906;45.658;9.272;2024-03-02T10:24:17;6.72;;;5.35;;
41167;SDS011;26906;45.658;9.272;2024-03-02T10:26:43;10.85;;;5.70;;
41167;SDS011;26906;45.658;9.272;2024-03-02T10:29:10;13.45;;;5.88;;
41167;SDS011;26906;45.658;9.272;2024-03-02T10:31:37;8.48;;;5.63;;
41167;SDS011;26906;45.658;9.272;2024-03-02T10:34:10;12.65;;;7.53;;
41167;SDS011;26906;45.658;9.272;2024-03-02T10:36:36;9.13;;;4.93;;
41167;SDS011;26906;45.658;9.272;2024-03-02T10:39:05;12.30;;;5.90;;
41167;SDS011;26906;45.658;9.272;2024-03-02T10:41:35;10.50;;;5.72;;
41167;SDS011;26906;45.658;9.272;2024-03-02T10:44:04;11.02;;;5.53;;
41167;SDS011;26906;45.658;9.272;2024-03-02T10:46:32;8.70;;;5.25;;
41167;SDS011;26906;45.658;9.272;2024-03-02T10:49:00;10.35;;;5.28;;
41167;SDS011;26906;45.658;9.272;2024-03-02T10:51:28;7.07;;;5.30;;
41167;SDS011;26906;45.658;9.272;2024-03-02T10:54:00;6.60;;;5.50;;
41167;SDS011;26906;45.658;9.272;2024-03-02T10:56:47;8.75;;;4.60;;
41167;SDS011;26906;45.658;9.272;2024-03-02T11:01:42;10.65;;;5.57;;
41167;SDS011;26906;45.658;9.272;2024-03-02T11:04:11;7.65;;;5.40;;
41167;SDS011;26906;45.658;9.272;2024-03-02T11:06:41;7.57;;;5.10;;
41167;SDS011;26906;45.658;9.272;2024-03-02T11:09:18;8.98;;;5.03;;
41167;SDS011;26906;45.658;9.272;2024-03-02T11:11:55;13.98;;;6.05;;
41167;SDS011;26906;45.658;9.272;2024-03-02T11:14:29;10.27;;;5.20;;
41167;SDS011;26906;45.658;9.272;2024-03-02T11:16:58;8.75;;;5.95;;
41167;SDS011;26906;45.658;9.272;2024-03-02T11:19:25;10.20;;;5.68;;
41167;SDS011;26906;45.658;9.272;2024-03-02T11:21:51;13.05;;;5.28;;
41167;SDS011;26906;45.658;9.272;2024-03-02T11:26:52;8.18;;;5.22;;
41167;SDS011;26906;45.658;9.272;2024-03-02T11:32:04;10.77;;;5.30;;
41167;SDS011;26906;45.658;9.272;2024-03-02T11:34:32;8.13;;;4.28;;
41167;SDS011;26906;45.658;9.272;2024-03-02T11:37:02;8.48;;;4.95;;
41167;SDS011;26906;45.658;9.272;2024-03-02T11:39:29;10.85;;;5.53;;
41167;SDS011;26906;45.658;9.272;2024-03-02T11:41:55;9.68;;;4.88;;
41167;SDS011;26906;45.658;9.272;2024-03-02T11:44:22;8.48;;;5.38;;
41167;SDS011;26906;45.658;9.272;2024-03-02T11:46:59;7.25;;;4.95;;
41167;SDS011;26906;45.658;9.272;2024-03-02T11:49:48;15.73;;;8.43;;
41167;SDS011;26906;45.658;9.272;2024-03-02T11:52:16;15.90;;;12.77;;
41167;SDS011;26906;45.658;9.272;2024-03-02T11:54:46;9.85;;;6.72;;
41167;SDS011;26906;45.658;9.272;2024-03-02T11:57:22;8.50;;;5.13;;
41167;SDS011;26906;45.658;9.272;2024-03-02T11:59:48;10.82;;;5.97;;
41167;SDS011;26906;45.658;9.272;2024-03-02T12:02:20;14.93;;;7.45;;
41167;SDS011;26906;45.658;9.272;2024-03-02T12:04:47;16.90;;;14.02;;
41167;SDS011;26906;45.658;9.272;2024-03-02T12:07:23;11.85;;;8.93;;
41167;SDS011;26906;45.658;9.272;2024-03-02T12:09:49;11.50;;;7.05;;
41167;SDS011;26906;45.658;9.272;2024-03-02T12:12:25;10.13;;;5.97;;
41167;SDS011;26906;45.658;9.272;2024-03-02T12:14:52;10.57;;;6.05;;
41167;SDS011;26906;45.658;9.272;2024-03-02T12:17:22;11.07;;;6.38;;
41167;SDS011;26906;45.658;9.272;2024-03-02T12:19:48;14.10;;;6.68;;
41167;SDS011;26906;45.658;9.272;2024-03-02T12:22:14;9.57;;;5.78;;
41167;SDS011;26906;45.658;9.272;2024-03-02T12:24:41;7.22;;;5.18;;
41167;SDS011;26906;45.658;9.272;2024-03-02T12:27:07;9.55;;;6.00;;
41167;SDS011;26906;45.658;9.272;2024-03-02T12:29:33;10.77;;;5.70;;
41167;SDS011;26906;45.658;9.272;2024-03-02T12:31:59;11.80;;;6.63;;
41167;SDS011;26906;45.658;9.272;2024-03-02T12:34:27;13.75;;;5.55;;
41167;SDS011;26906;45.658;9.272;2024-03-02T12:36:53;7.97;;;4.50;;
41167;SDS011;26906;45.658;9.272;2024-03-02T12:39:19;7.43;;;4.68;;
41167;SDS011;26906;45.658;9.272;2024-03-02T12:41:46;12.00;;;5.70;;
41167;SDS011;26906;45.658;9.272;2024-03-02T12:44:12;13.55;;;8.15;;
41167;SDS011;26906;45.658;9.272;2024-03-02T12:46:39;17.50;;;13.30;;
41167;SDS011;26906;45.658;9.272;2024-03-02T12:49:09;6.45;;;4.20;;
41167;SDS011;26906;45.658;9.272;2024-03-02T12:51:38;5.43;;;4.57;;
41167;SDS011;26906;45.658;9.272;2024-03-02T12:54:09;5.15;;;4.03;;
41167;SDS011;26906;45.658;9.272;2024-03-02T12:56:36;6.55;;;4.18;;
41167;SDS011;26906;45.658;9.272;2024-03-02T12:59:04;7.10;;;4.15;;
41167;SDS011;26906;45.658;9.272;2024-03-02T13:01:31;6.38;;;3.63;;
41167;SDS011;26906;45.658;9.272;2024-03-02T13:04:00;5.20;;;3.38;;
41167;SDS011;26906;45.658;9.272;2024-03-02T13:06:26;4.47;;;3.42;;
41167;SDS011;26906;45.658;9.272;2024-03-02T13:08:53;5.35;;;3.38;;
41167;SDS011;26906;45.658;9.272;2024-03-02T13:11:20;8.15;;;4.60;;
41167;SDS011;26906;45.658;9.272;2024-03-02T13:13:48;7.93;;;4.50;;
41167;SDS011;26906;45.658;9.272;2024-03-02T13:16:16;5.70;;;5.10;;
41167;SDS011;26906;45.658;9.272;2024-03-02T13:18:44;5.93;;;4.45;;
41167;SDS011;26906;45.658;9.272;2024-03-02T13:21:10;10.63;;;5.40;;
41167;SDS011;26906;45.658;9.272;2024-03-02T13:23:36;6.35;;;5.13;;
41167;SDS011;26906;45.658;9.272;2024-03-02T13:26:02;6.70;;;5.07;;
41167;SDS011;26906;45.658;9.272;2024-03-02T13:28:28;5.95;;;4.78;;
41167;SDS011;26906;45.658;9.272;2024-03-02T13:30:54;6.97;;;6.28;;
41167;SDS011;26906;45.658;9.272;2024-03-02T13:33:19;10.68;;;7.13;;
41167;SDS011;26906;45.658;9.272;2024-03-02T13:35:51;8.05;;;7.25;;
41167;SDS011;26906;45.658;9.272;2024-03-02T13:38:18;8.18;;;5.93;;
41167;SDS011;26906;45.658;9.272;2024-03-02T13:40:44;7.97;;;5.18;;
41167;SDS011;26906;45.658;9.272;2024-03-02T13:43:11;5.38;;;4.88;;
41167;SDS011;26906;45.658;9.272;2024-03-02T13:45:39;9.32;;;7.88;;
41167;SDS011;26906;45.658;9.272;2024-03-02T13:48:05;7.35;;;4.63;;
41167;SDS011;26906;45.658;9.272;2024-03-02T13:50:31;6.82;;;6.18;;
41167;SDS011;26906;45.658;9.272;2024-03-02T13:52:57;6.15;;;5.53;;
41167;SDS011;26906;45.658;9.272;2024-03-02T13:55:24;8.77;;;5.90;;
41167;SDS011;26906;45.658;9.272;2024-03-02T13:57:50;10.25;;;7.07;;
41167;SDS011;26906;45.658;9.272;2024-03-02T14:00:19;5.57;;;4.50;;
41167;SDS011;26906;45.658;9.272;2024-03-02T14:02:45;5.07;;;4.50;;
41167;SDS011;26906;45.658;9.272;2024-03-02T14:05:12;8.27;;;5.10;;
41167;SDS011;26906;45.658;9.272;2024-03-02T14:07:40;6.30;;;5.53;;
41167;SDS011;26906;45.658;9.272;2024-03-02T14:10:06;5.20;;;4.70;;
41167;SDS011;26906;45.658;9.272;2024-03-02T14:12:32;4.40;;;3.97;;
41167;SDS011;26906;45.658;9.272;2024-03-02T14:14:58;7.60;;;4.68;;
41167;SDS011;26906;45.658;9.272;2024-03-02T14:17:27;7.45;;;5.68;;
41167;SDS011;26906;45.658;9.272;2024-03-02T14:19:53;8.15;;;6.05;;
41167;SDS011;26906;45.658;9.272;2024-03-02T14:22:19;7.32;;;6.05;;
41167;SDS011;26906;45.658;9.272;2024-03-02T14:24:46;7.53;;;6.80;;
41167;SDS011;26906;45.658;9.272;2024-03-02T14:27:13;9.30;;;7.25;;
41167;SDS011;26906;45.658;9.272;2024-03-02T14:29:43;8.15;;;7.35;;
41167;SDS011;26906;45.658;9.272;2024-03-02T14:32:10;8.85;;;7.93;;
41167;SDS011;26906;45.658;9.272;2024-03-02T14:34:36;8.05;;;7.25;;
41167;SDS011;26906;45.658;9.272;2024-03-02T14:37:03;10.88;;;7.60;;
41167;SDS011;26906;45.658;9.272;2024-03-02T14:39:29;8.18;;;7.20;;
41167;SDS011;26906;45.658;9.272;2024-03-02T14:41:59;8.85;;;7.00;;
41167;SDS011;26906;45.658;9.272;2024-03-02T14:44:26;10.23;;;6.28;;
41167;SDS011;26906;45.658;9.272;2024-03-02T14:46:52;7.53;;;6.47;;
41167;SDS011;26906;45.658;9.272;2024-03-02T14:49:21;8.45;;;6.25;;
41167;SDS011;26906;45.658;9.272;2024-03-02T14:51:47;7.13;;;6.03;;
41167;SDS011;26906;45.658;9.272;2024-03-02T14:54:14;5.68;;;5.07;;
41167;SDS011;26906;45.658;9.272;2024-03-02T14:56:40;5.72;;;5.13;;
41167;SDS011;26906;45.658;9.272;2024-03-02T14:59:07;6.70;;;5.35;;
41167;SDS011;26906;45.658;9.272;2024-03-02T15:01:50;5.20;;;4.70;;
41167;SDS011;26906;45.658;9.272;2024-03-02T15:06:45;5.53;;;4.32;;
41167;SDS011;26906;45.658;9.272;2024-03-02T15:09:11;9.07;;;5.20;;
41167;SDS011;26906;45.658;9.272;2024-03-02T15:11:37;4.43;;;4.03;;
41167;SDS011;26906;45.658;9.272;2024-03-02T15:14:03;4.50;;;3.45;;
41167;SDS011;26906;45.658;9.272;2024-03-02T15:16:30;4.03;;;3.20;;
41167;SDS011;26906;45.658;9.272;2024-03-02T15:18:56;4.13;;;3.60;;
41167;SDS011;26906;45.658;9.272;2024-03-02T15:21:23;5.88;;;3.42;;
41167;SDS011;26906;45.658;9.272;2024-03-02T15:23:48;3.97;;;3.10;;
41167;SDS011;26906;45.658;9.272;2024-03-02T15:26:15;3.15;;;2.80;;
41167;SDS011;26906;45.658;9.272;2024-03-02T15:28:42;4.97;;;3.72;;
41167;SDS011;26906;45.658;9.272;2024-03-02T15:31:08;5.72;;;3.10;;
41167;SDS011;26906;45.658;9.272;2024-03-02T15:33:34;6.45;;;4.38;;
41167;SDS011;26906;45.658;9.272;2024-03-02T15:35:59;4.45;;;3.30;;
41167;SDS011;26906;45.658;9.272;2024-03-02T15:38:26;5.93;;;5.40;;
41167;SDS011;26906;45.658;9.272;2024-03-02T15:40:53;5.25;;;4.43;;
41167;SDS011;26906;45.658;9.272;2024-03-02T15:43:19;5.88;;;3.90;;
41167;SDS011;26906;45.658;9.272;2024-03-02T15:45:46;7.15;;;4.35;;
41167;SDS011;26906;45.658;9.272;2024-03-02T15:48:12;4.40;;;3.80;;
41167;SDS011;26906;45.658;9.272;2024-03-02T15:50:38;3.60;;;3.30;;
41167;SDS011;26906;45.658;9.272;2024-03-02T15:53:04;5.47;;;3.50;;
41167;SDS011;26906;45.658;9.272;2024-03-02T15:55:31;4.63;;;3.78;;
41167;SDS011;26906;45.658;9.272;2024-03-02T15:58:00;5.03;;;3.55;;
41167;SDS011;26906;45.658;9.272;2024-03-02T16:00:29;5.40;;;3.70;;
41167;SDS011;26906;45.658;9.272;2024-03-02T16:02:54;5.70;;;3.55;;
41167;SDS011;26906;45.658;9.272;2024-03-02T16:05:20;3.53;;;3.22;;
41167;SDS011;26906;45.658;9.272;2024-03-02T16:07:46;4.65;;;3.30;;
41167;SDS011;26906;45.658;9.272;2024-03-02T16:10:12;4.65;;;3.47;;
41167;SDS011;26906;45.658;9.272;2024-03-02T16:12:38;6.05;;;4.53;;
41167;SDS011;26906;45.658;9.272;2024-03-02T16:15:06;7.22;;;3.90;;
41167;SDS011;26906;45.658;9.272;2024-03-02T16:17:33;4.82;;;4.18;;
41167;SDS011;26906;45.658;9.272;2024-03-02T16:20:00;6.10;;;4.18;;
41167;SDS011;26906;45.658;9.272;2024-03-02T16:22:31;7.03;;;5.10;;
41167;SDS011;26906;45.658;9.272;2024-03-02T16:24:57;4.40;;;4.00;;
41167;SDS011;26906;45.658;9.272;2024-03-02T16:27:23;4.95;;;4.38;;
41167;SDS011;26906;45.658;9.272;2024-03-02T16:29:50;6.03;;;4.32;;
41167;SDS011;26906;45.658;9.272;2024-03-02T16:32:16;5.68;;;3.97;;
41167;SDS011;26906;45.658;9.272;2024-03-02T16:34:42;7.40;;;4.47;;
41167;SDS011;26906;45.658;9.272;2024-03-02T16:37:10;4.70;;;4.00;;
41167;SDS011;26906;45.658;9.272;2024-03-02T16:39:36;5.30;;;4.57;;
41167;SDS011;26906;45.658;9.272;2024-03-02T16:42:02;8.38;;;4.68;;
41167;SDS011;26906;45.658;9.272;2024-03-02T16:44:28;16.58;;;13.82;;
41167;SDS011;26906;45.658;9.272;2024-03-02T16:46:54;6.13;;;5.30;;
41167;SDS011;26906;45.658;9.272;2024-03-02T16:49:20;8.27;;;5.50;;
41167;SDS011;26906;45.658;9.272;2024-03-02T16:51:45;6.40;;;4.95;;
41167;SDS011;26906;45.658;9.272;2024-03-02T16:54:12;5.80;;;5.15;;
41167;SDS011;26906;45.658;9.272;2024-03-02T16:56:42;6.43;;;5.82;;
41167;SDS011;26906;45.658;9.272;2024-03-02T16:59:08;6.70;;;5.88;;
41167;SDS011;26906;45.658;9.272;2024-03-02T17:01:40;8.32;;;5.65;;
41167;SDS011;26906;45.658;9.272;2024-03-02T17:04:05;13.65;;;11.63;;
41167;SDS011;26906;45.658;9.272;2024-03-02T17:06:33;10.07;;;8.77;;
41167;SDS011;26906;45.658;9.272;2024-03-02T17:08:58;11.15;;;8.23;;
41167;SDS011;26906;45.658;9.272;2024-03-02T17:11:27;14.45;;;10.02;;
41167;SDS011;26906;45.658;9.272;2024-03-02T17:13:52;13.55;;;9.80;;
41167;SDS011;26906;45.658;9.272;2024-03-02T17:16:22;9.05;;;8.15;;
41167;SDS011;26906;45.658;9.272;2024-03-02T17:18:50;27.75;;;17.73;;
41167;SDS011;26906;45.658;9.272;2024-03-02T17:21:16;14.57;;;10.18;;
41167;SDS011;26906;45.658;9.272;2024-03-02T17:23:44;23.73;;;14.50;;
41167;SDS011;26906;45.658;9.272;2024-03-02T17:26:09;8.70;;;7.13;;
41167;SDS011;26906;45.658;9.272;2024-03-02T17:28:36;9.88;;;8.27;;
41167;SDS011;26906;45.658;9.272;2024-03-02T17:31:02;9.68;;;8.35;;
41167;SDS011;26906;45.658;9.272;2024-03-02T17:33:30;16.63;;;12.27;;
41167;SDS011;26906;45.658;9.272;2024-03-02T17:35:58;13.13;;;11.52;;
41167;SDS011;26906;45.658;9.272;2024-03-02T17:38:24;26.70;;;17.88;;
41167;SDS011;26906;45.658;9.272;2024-03-02T17:40:49;11.95;;;8.45;;
41167;SDS011;26906;45.658;9.272;2024-03-02T17:43:15;46.53;;;30.65;;
41167;SDS011;26906;45.658;9.272;2024-03-02T17:45:41;13.70;;;11.27;;
41167;SDS011;26906;45.658;9.272;2024-03-02T17:48:07;23.63;;;15.95;;
41167;SDS011;26906;45.658;9.272;2024-03-02T17:50:33;12.18;;;8.75;;
41167;SDS011;26906;45.658;9.272;2024-03-02T17:52:59;21.90;;;15.85;;
41167;SDS011;26906;45.658;9.272;2024-03-02T17:55:26;49.22;;;33.10;;
41167;SDS011;26906;45.658;9.272;2024-03-02T17:57:53;14.90;;;12.60;;
41167;SDS011;26906;45.658;9.272;2024-03-02T18:00:18;15.85;;;12.75;;
41167;SDS011;26906;45.658;9.272;2024-03-02T18:02:46;42.28;;;28.45;;
41167;SDS011;26906;45.658;9.272;2024-03-02T18:05:12;17.10;;;14.05;;
41167;SDS011;26906;45.658;9.272;2024-03-02T18:07:40;15.02;;;12.27;;
41167;SDS011;26906;45.658;9.272;2024-03-02T18:10:06;12.55;;;10.68;;
41167;SDS011;26906;45.658;9.272;2024-03-02T18:12:32;12.75;;;10.15;;
41167;SDS011;26906;45.658;9.272;2024-03-02T18:14:58;21.27;;;16.10;;
41167;SDS011;26906;45.658;9.272;2024-03-02T18:17:26;61.90;;;40.60;;
41167;SDS011;26906;45.658;9.272;2024-03-02T18:19:52;78.60;;;46.88;;
41167;SDS011;26906;45.658;9.272;2024-03-02T18:22:18;12.35;;;11.00;;
41167;SDS011;26906;45.658;9.272;2024-03-02T18:24:44;12.82;;;11.30;;
41167;SDS011;26906;45.658;9.272;2024-03-02T18:27:13;13.93;;;12.32;;
41167;SDS011;26906;45.658;9.272;2024-03-02T18:29:39;17.40;;;14.73;;
41167;SDS011;26906;45.658;9.272;2024-03-02T18:32:05;15.63;;;12.20;;
41167;SDS011;26906;45.658;9.272;2024-03-02T18:34:31;14.90;;;13.32;;
41167;SDS011;26906;45.658;9.272;2024-03-02T18:36:57;14.60;;;13.10;;
41167;SDS011;26906;45.658;9.272;2024-03-02T18:39:23;17.50;;;15.00;;
41167;SDS011;26906;45.658;9.272;2024-03-02T18:41:49;19.70;;;16.73;;
41167;SDS011;26906;45.658;9.272;2024-03-02T18:44:15;18.00;;;15.82;;
41167;SDS011;26906;45.658;9.272;2024-03-02T18:46:41;15.80;;;14.20;;
41167;SDS011;26906;45.658;9.272;2024-03-02T18:49:07;18.15;;;15.55;;
41167;SDS011;26906;45.658;9.272;2024-03-02T18:51:34;18.92;;;15.80;;
41167;SDS011;26906;45.658;9.272;2024-03-02T18:54:01;16.98;;;15.18;;
41167;SDS011;26906;45.658;9.272;2024-03-02T18:56:29;18.33;;;16.48;;
41167;SDS011;26906;45.658;9.272;2024-03-02T18:58:54;19.10;;;17.10;;
41167;SDS011;26906;45.658;9.272;2024-03-02T19:01:22;17.60;;;15.35;;
41167;SDS011;26906;45.658;9.272;2024-03-02T19:03:47;15.73;;;14.13;;
41167;SDS011;26906;45.658;9.272;2024-03-02T19:06:16;19.92;;;16.98;;
41167;SDS011;26906;45.658;9.272;2024-03-02T19:08:43;24.38;;;20.60;;
41167;SDS011;26906;45.658;9.272;2024-03-02T19:11:16;27.52;;;22.38;;
41167;SDS011;26906;45.658;9.272;2024-03-02T19:13:45;16.83;;;15.00;;
41167;SDS011;26906;45.658;9.272;2024-03-02T19:16:10;17.90;;;15.90;;
41167;SDS011;26906;45.658;9.272;2024-03-02T19:18:40;19.77;;;15.30;;
41167;SDS011;26906;45.658;9.272;2024-03-02T19:21:08;20.05;;;17.85;;
41167;SDS011;26906;45.658;9.272;2024-03-02T19:23:34;18.77;;;15.43;;
41167;SDS011;26906;45.658;9.272;2024-03-02T19:26:00;17.65;;;15.48;;
41167;SDS011;26906;45.658;9.272;2024-03-02T19:28:26;20.17;;;15.90;;
41167;SDS011;26906;45.658;9.272;2024-03-02T19:30:52;17.52;;;14.18;;
41167;SDS011;26906;45.658;9.272;2024-03-02T19:33:18;18.08;;;15.70;;
41167;SDS011;26906;45.658;9.272;2024-03-02T19:35:44;19.77;;;17.33;;
41167;SDS011;26906;45.658;9.272;2024-03-02T19:38:10;16.98;;;14.55;;
41167;SDS011;26906;45.658;9.272;2024-03-02T19:40:35;21.08;;;18.85;;
41167;SDS011;26906;45.658;9.272;2024-03-02T19:43:01;20.88;;;18.17;;
41167;SDS011;26906;45.658;9.272;2024-03-02T19:45:27;21.52;;;17.15;;
41167;SDS011;26906;45.658;9.272;2024-03-02T19:47:53;21.83;;;16.77;;
41167;SDS011;26906;45.658;9.272;2024-03-02T19:50:18;19.35;;;15.27;;
41167;SDS011;26906;45.658;9.272;2024-03-02T19:52:44;20.83;;;15.32;;
41167;SDS011;26906;45.658;9.272;2024-03-02T19:55:10;18.92;;;15.45;;
41167;SDS011;26906;45.658;9.272;2024-03-02T19:57:39;23.70;;;18.70;;
41167;SDS011;26906;45.658;9.272;2024-03-02T20:00:10;21.48;;;17.02;;
41167;SDS011;26906;45.658;9.272;2024-03-02T20:02:37;31.38;;;22.45;;
41167;SDS011;26906;45.658;9.272;2024-03-02T20:05:03;42.90;;;23.52;;
41167;SDS011;26906;45.658;9.272;2024-03-02T20:07:30;25.75;;;19.48;;
41167;SDS011;26906;45.658;9.272;2024-03-02T20:09:56;23.20;;;18.52;;
41167;SDS011;26906;45.658;9.272;2024-03-02T20:12:22;65.53;;;34.75;;
41167;SDS011;26906;45.658;9.272;2024-03-02T20:14:48;29.42;;;20.60;;
41167;SDS011;26906;45.658;9.272;2024-03-02T20:17:14;24.05;;;18.77;;
41167;SDS011;26906;45.658;9.272;2024-03-02T20:19:40;39.10;;;22.80;;
41167;SDS011;26906;45.658;9.272;2024-03-02T20:22:06;40.53;;;22.70;;
41167;SDS011;26906;45.658;9.272;2024-03-02T20:24:32;35.70;;;23.17;;
41167;SDS011;26906;45.658;9.272;2024-03-02T20:26:58;29.75;;;20.55;;
41167;SDS011;26906;45.658;9.272;2024-03-02T20:29:23;19.40;;;16.65;;
41167;SDS011;26906;45.658;9.272;2024-03-02T20:31:49;39.70;;;27.90;;
41167;SDS011;26906;45.658;9.272;2024-03-02T20:34:15;18.88;;;16.70;;
41167;SDS011;26906;45.658;9.272;2024-03-02T20:36:43;19.38;;;16.58;;
41167;SDS011;26906;45.658;9.272;2024-03-02T20:39:09;18.27;;;15.65;;
41167;SDS011;26906;45.658;9.272;2024-03-02T20:41:35;20.48;;;16.83;;
41167;SDS011;26906;45.658;9.272;2024-03-02T20:44:04;21.02;;;15.80;;
41167;SDS011;26906;45.658;9.272;2024-03-02T20:46:31;20.67;;;16.35;;
41167;SDS011;26906;45.658;9.272;2024-03-02T20:48:56;20.92;;;15.85;;
41167;SDS011;26906;45.658;9.272;2024-03-02T20:51:22;19.00;;;14.45;;
41167;SDS011;26906;45.658;9.272;2024-03-02T20:53:55;22.05;;;14.77;;
41167;SDS011;26906;45.658;9.272;2024-03-02T20:56:22;19.48;;;15.68;;
41167;SDS011;26906;45.658;9.272;2024-03-02T20:58:48;24.35;;;16.55;;
41167;SDS011;26906;45.658;9.272;2024-03-02T21:01:13;21.50;;;16.02;;
41167;SDS011;26906;45.658;9.272;2024-03-02T21:03:39;19.73;;;17.13;;
41167;SDS011;26906;45.658;9.272;2024-03-02T21:06:06;20.38;;;16.75;;
41167;SDS011;26906;45.658;9.272;2024-03-02T21:08:32;20.67;;;15.98;;
41167;SDS011;26906;45.658;9.272;2024-03-02T21:10:57;21.80;;;16.45;;
41167;SDS011;26906;45.658;9.272;2024-03-02T21:13:27;18.05;;;14.57;;
41167;SDS011;26906;45.658;9.272;2024-03-02T21:15:52;19.88;;;15.77;;
41167;SDS011;26906;45.658;9.272;2024-03-02T21:18:18;16.45;;;13.85;;
41167;SDS011;26906;45.658;9.272;2024-03-02T21:20:44;18.20;;;15.88;;
41167;SDS011;26906;45.658;9.272;2024-03-02T21:23:09;17.92;;;13.82;;
41167;SDS011;26906;45.658;9.272;2024-03-02T21:25:39;20.85;;;17.08;;
41167;SDS011;26906;45.658;9.272;2024-03-02T21:28:05;19.58;;;14.80;;
41167;SDS011;26906;45.658;9.272;2024-03-02T21:30:31;20.25;;;16.70;;
41167;SDS011;26906;45.658;9.272;2024-03-02T21:33:00;20.73;;;15.02;;
41167;SDS011;26906;45.658;9.272;2024-03-02T21:35:32;19.70;;;15.98;;
41167;SDS011;26906;45.658;9.272;2024-03-02T21:37:59;18.02;;;14.77;;
41167;SDS011;26906;45.658;9.272;2024-03-02T21:40:27;19.20;;;14.98;;
41167;SDS011;26906;45.658;9.272;2024-03-02T21:42:56;19.77;;;16.85;;
41167;SDS011;26906;45.658;9.272;2024-03-02T21:45:22;18.75;;;14.70;;
41167;SDS011;26906;45.658;9.272;2024-03-02T21:47:48;19.77;;;16.17;;
